sensor_id;sensor_type;location;lat;lon;timestamp;temperature;humidity
15481;DHT22;7842;50.904;6.670;2023-09-08T00:01:25;19.30;99.90
15481;DHT22;7842;50.904;6.670;2023-09-08T00:03:50;19.40;99.90
15481;DHT22;7842;50.904;6.670;2023-09-08T00:06:16;19.40;99.90
15481;DHT22;7842;50.904;6.670;2023-09-08T00:08:42;19.40;99.90
15481;DHT22;7842;50.904;6.670;2023-09-08T00:11:08;19.40;99.90
15481;DHT22;7842;50.904;6.670;2023-09-08T00:13:34;19.40;99.90
15481;DHT22;7842;50.904;6.670;2023-09-08T00:15:59;19.40;99.90
15481;DHT22;7842;50.904;6.670;2023-09-08T00:18:25;19.40;99.90
15481;DHT22;7842;50.904;6.670;2023-09-08T00:20:51;19.40;99.90
15481;DHT22;7842;50.904;6.670;2023-09-08T00:23:16;19.40;99.90
15481;DHT22;7842;50.904;6.670;2023-09-08T00:25:42;19.30;99.90
15481;DHT22;7842;50.904;6.670;2023-09-08T00:28:08;19.30;99.90
15481;DHT22;7842;50.904;6.670;2023-09-08T00:40:18;19.20;99.90
15481;DHT22;7842;50.904;6.670;2023-09-08T00:42:43;19.10;99.90
15481;DHT22;7842;50.904;6.670;2023-09-08T00:45:09;19.10;99.90
15481;DHT22;7842;50.904;6.670;2023-09-08T00:47:35;19.10;99.90
15481;DHT22;7842;50.904;6.670;2023-09-08T00:50:03;19.10;99.90
15481;DHT22;7842;50.904;6.670;2023-09-08T00:52:29;19.00;99.90
15481;DHT22;7842;50.904;6.670;2023-09-08T00:57:24;18.90;99.90
15481;DHT22;7842;50.904;6.670;2023-09-08T00:59:50;18.80;99.90
15481;DHT22;7842;50.904;6.670;2023-09-08T01:02:16;18.70;99.90
15481;DHT22;7842;50.904;6.670;2023-09-08T01:04:42;18.70;99.90
15481;DHT22;7842;50.904;6.670;2023-09-08T01:07:09;18.60;99.90
15481;DHT22;7842;50.904;6.670;2023-09-08T01:09:36;18.50;99.90
15481;DHT22;7842;50.904;6.670;2023-09-08T01:12:04;18.40;99.90
15481;DHT22;7842;50.904;6.670;2023-09-08T01:14:31;18.20;99.90
15481;DHT22;7842;50.904;6.670;2023-09-08T01:36:45;17.40;99.90
15481;DHT22;7842;50.904;6.670;2023-09-08T01:39:11;17.40;99.90
15481;DHT22;7842;50.904;6.670;2023-09-08T01:41:37;17.40;99.90
15481;DHT22;7842;50.904;6.670;2023-09-08T01:44:03;17.40;99.90
15481;DHT22;7842;50.904;6.670;2023-09-08T01:46:33;17.30;99.90
15481;DHT22;7842;50.904;6.670;2023-09-08T01:48:59;17.30;99.90
15481;DHT22;7842;50.904;6.670;2023-09-08T01:51:25;17.20;99.90
15481;DHT22;7842;50.904;6.670;2023-09-08T01:53:51;17.20;99.90
15481;DHT22;7842;50.904;6.670;2023-09-08T01:56:16;17.10;99.90
15481;DHT22;7842;50.904;6.670;2023-09-08T01:58:42;17.20;99.90
15481;DHT22;7842;50.904;6.670;2023-09-08T02:01:08;17.30;99.90
15481;DHT22;7842;50.904;6.670;2023-09-08T02:03:33;17.30;99.90
15481;DHT22;7842;50.904;6.670;2023-09-08T02:05:59;17.40;99.90
15481;DHT22;7842;50.904;6.670;2023-09-08T02:08:25;17.30;99.90
15481;DHT22;7842;50.904;6.670;2023-09-08T02:10:51;17.20;99.90
15481;DHT22;7842;50.904;6.670;2023-09-08T02:15:42;17.20;99.90
15481;DHT22;7842;50.904;6.670;2023-09-08T02:18:08;17.20;99.90
15481;DHT22;7842;50.904;6.670;2023-09-08T02:20:34;17.10;99.90
15481;DHT22;7842;50.904;6.670;2023-09-08T02:23:05;17.10;99.90
15481;DHT22;7842;50.904;6.670;2023-09-08T11:07:35;27.70;99.90
15481;DHT22;7842;50.904;6.670;2023-09-08T11:10:02;28.30;99.90
15481;DHT22;7842;50.904;6.670;2023-09-08T11:14:55;28.20;99.90
15481;DHT22;7842;50.904;6.670;2023-09-08T11:19:50;28.20;99.90
15481;DHT22;7842;50.904;6.670;2023-09-08T11:54:06;28.80;99.90
15481;DHT22;7842;50.904;6.670;2023-09-08T11:58:58;29.20;99.90
15481;DHT22;7842;50.904;6.670;2023-09-08T12:01:24;29.20;99.90
15481;DHT22;7842;50.904;6.670;2023-09-08T12:06:26;29.10;99.90
15481;DHT22;7842;50.904;6.670;2023-09-08T12:08:53;29.10;99.90
15481;DHT22;7842;50.904;6.670;2023-09-08T12:11:19;29.20;99.90
15481;DHT22;7842;50.904;6.670;2023-09-08T12:13:45;29.30;99.90
15481;DHT22;7842;50.904;6.670;2023-09-08T12:16:20;29.30;99.90
15481;DHT22;7842;50.904;6.670;2023-09-08T12:18:48;29.30;99.90
15481;DHT22;7842;50.904;6.670;2023-09-08T12:21:15;29.50;99.90
15481;DHT22;7842;50.904;6.670;2023-09-08T12:23:51;29.50;99.90
15481;DHT22;7842;50.904;6.670;2023-09-08T12:26:17;29.40;99.90
15481;DHT22;7842;50.904;6.670;2023-09-08T12:28:43;29.60;99.90
15481;DHT22;7842;50.904;6.670;2023-09-08T12:31:09;29.50;99.90
15481;DHT22;7842;50.904;6.670;2023-09-08T12:33:36;29.50;99.90
15481;DHT22;7842;50.904;6.670;2023-09-08T12:36:15;29.50;99.90
15481;DHT22;7842;50.904;6.670;2023-09-08T12:38:50;29.60;99.90
15481;DHT22;7842;50.904;6.670;2023-09-08T12:41:16;29.60;99.90
15481;DHT22;7842;50.904;6.670;2023-09-08T12:43:41;29.60;99.90
15481;DHT22;7842;50.904;6.670;2023-09-08T12:46:07;29.50;99.90
15481;DHT22;7842;50.904;6.670;2023-09-08T12:48:33;29.70;99.90
15481;DHT22;7842;50.904;6.670;2023-09-08T12:50:59;29.90;99.90
15481;DHT22;7842;50.904;6.670;2023-09-08T12:53:24;30.00;99.90
15481;DHT22;7842;50.904;6.670;2023-09-08T12:55:50;29.90;99.90
15481;DHT22;7842;50.904;6.670;2023-09-08T12:58:17;30.00;99.90
15481;DHT22;7842;50.904;6.670;2023-09-08T13:00:43;30.10;99.90
15481;DHT22;7842;50.904;6.670;2023-09-08T13:03:09;30.20;99.90
15481;DHT22;7842;50.904;6.670;2023-09-08T13:05:35;30.30;99.90
15481;DHT22;7842;50.904;6.670;2023-09-08T13:08:04;30.10;99.90
15481;DHT22;7842;50.904;6.670;2023-09-08T13:10:29;30.00;99.90
15481;DHT22;7842;50.904;6.670;2023-09-08T13:12:55;30.10;99.90
15481;DHT22;7842;50.904;6.670;2023-09-08T13:15:21;30.00;99.90
15481;DHT22;7842;50.904;6.670;2023-09-08T13:17:47;29.90;99.90
15481;DHT22;7842;50.904;6.670;2023-09-08T13:20:12;30.00;99.90
15481;DHT22;7842;50.904;6.670;2023-09-08T13:22:38;30.00;99.90
15481;DHT22;7842;50.904;6.670;2023-09-08T13:25:04;30.10;99.90
15481;DHT22;7842;50.904;6.670;2023-09-08T13:27:30;30.30;99.90
15481;DHT22;7842;50.904;6.670;2023-09-08T13:30:16;30.30;99.90
15481;DHT22;7842;50.904;6.670;2023-09-08T13:32:43;30.40;99.90
15481;DHT22;7842;50.904;6.670;2023-09-08T13:35:09;30.10;99.90
15481;DHT22;7842;50.904;6.670;2023-09-08T13:37:35;30.20;99.90
15481;DHT22;7842;50.904;6.670;2023-09-08T13:40:03;30.40;99.90
15481;DHT22;7842;50.904;6.670;2023-09-08T13:42:29;30.40;99.90
15481;DHT22;7842;50.904;6.670;2023-09-08T13:44:55;30.40;99.90
15481;DHT22;7842;50.904;6.670;2023-09-08T13:47:20;30.40;99.90
15481;DHT22;7842;50.904;6.670;2023-09-08T14:11:43;30.50;99.90
15481;DHT22;7842;50.904;6.670;2023-09-08T14:14:09;30.60;99.90
15481;DHT22;7842;50.904;6.670;2023-09-08T14:16:35;30.50;99.90
15481;DHT22;7842;50.904;6.670;2023-09-08T14:19:00;30.60;99.90
15481;DHT22;7842;50.904;6.670;2023-09-08T14:21:26;30.80;99.90
15481;DHT22;7842;50.904;6.670;2023-09-08T14:23:52;30.70;99.90
15481;DHT22;7842;50.904;6.670;2023-09-08T14:28:45;30.80;99.90
15481;DHT22;7842;50.904;6.670;2023-09-08T14:31:11;30.80;99.90
15481;DHT22;7842;50.904;6.670;2023-09-08T14:33:37;30.80;99.90
15481;DHT22;7842;50.904;6.670;2023-09-08T14:36:02;30.70;99.90
15481;DHT22;7842;50.904;6.670;2023-09-08T14:38:29;30.80;99.90
15481;DHT22;7842;50.904;6.670;2023-09-08T14:41:03;31.00;99.90
15481;DHT22;7842;50.904;6.670;2023-09-08T14:43:29;30.90;99.90
15481;DHT22;7842;50.904;6.670;2023-09-08T14:45:55;30.90;99.90
15481;DHT22;7842;50.904;6.670;2023-09-08T14:48:24;30.90;99.90
15481;DHT22;7842;50.904;6.670;2023-09-08T14:50:50;31.00;99.90
15481;DHT22;7842;50.904;6.670;2023-09-08T14:53:16;31.10;99.90
15481;DHT22;7842;50.904;6.670;2023-09-08T14:55:41;31.00;99.90
15481;DHT22;7842;50.904;6.670;2023-09-08T14:58:10;30.90;99.90
15481;DHT22;7842;50.904;6.670;2023-09-08T15:00:37;30.70;99.90
15481;DHT22;7842;50.904;6.670;2023-09-08T15:03:02;30.60;99.90
15481;DHT22;7842;50.904;6.670;2023-09-08T15:05:31;30.60;99.90
15481;DHT22;7842;50.904;6.670;2023-09-08T15:07:57;30.60;99.90
15481;DHT22;7842;50.904;6.670;2023-09-08T15:10:23;30.60;99.90
15481;DHT22;7842;50.904;6.670;2023-09-08T15:12:49;30.50;99.90
15481;DHT22;7842;50.904;6.670;2023-09-08T15:15:14;30.60;99.90
15481;DHT22;7842;50.904;6.670;2023-09-08T15:17:41;30.70;99.90
15481;DHT22;7842;50.904;6.670;2023-09-08T15:20:07;30.90;99.90
15481;DHT22;7842;50.904;6.670;2023-09-08T15:22:34;30.80;99.90
15481;DHT22;7842;50.904;6.670;2023-09-08T15:25:00;31.00;99.90
15481;DHT22;7842;50.904;6.670;2023-09-08T15:27:26;31.00;99.90
15481;DHT22;7842;50.904;6.670;2023-09-08T15:29:53;31.10;99.90
15481;DHT22;7842;50.904;6.670;2023-09-08T15:32:18;31.10;99.90
15481;DHT22;7842;50.904;6.670;2023-09-08T15:34:44;31.30;99.90
15481;DHT22;7842;50.904;6.670;2023-09-08T15:37:12;31.30;99.90
15481;DHT22;7842;50.904;6.670;2023-09-08T15:39:38;31.40;99.90
15481;DHT22;7842;50.904;6.670;2023-09-08T15:42:04;31.20;99.90
15481;DHT22;7842;50.904;6.670;2023-09-08T15:44:30;31.10;99.90
15481;DHT22;7842;50.904;6.670;2023-09-08T15:46:55;31.20;99.90
15481;DHT22;7842;50.904;6.670;2023-09-08T15:49:21;31.20;99.90
15481;DHT22;7842;50.904;6.670;2023-09-08T15:51:46;31.40;99.90
15481;DHT22;7842;50.904;6.670;2023-09-08T15:54:12;31.60;99.90
15481;DHT22;7842;50.904;6.670;2023-09-08T15:56:38;31.70;99.90
15481;DHT22;7842;50.904;6.670;2023-09-08T15:59:04;31.50;99.90
15481;DHT22;7842;50.904;6.670;2023-09-08T16:01:29;31.40;99.90
15481;DHT22;7842;50.904;6.670;2023-09-08T16:06:21;31.10;99.90
15481;DHT22;7842;50.904;6.670;2023-09-08T16:08:47;31.00;99.90
15481;DHT22;7842;50.904;6.670;2023-09-08T16:11:12;31.00;99.90
15481;DHT22;7842;50.904;6.670;2023-09-08T16:13:38;30.90;99.90
15481;DHT22;7842;50.904;6.670;2023-09-08T16:16:04;30.80;99.90
15481;DHT22;7842;50.904;6.670;2023-09-08T16:18:32;30.70;99.90
15481;DHT22;7842;50.904;6.670;2023-09-08T16:20:58;30.70;99.90
15481;DHT22;7842;50.904;6.670;2023-09-08T16:23:24;30.70;99.90
15481;DHT22;7842;50.904;6.670;2023-09-08T16:25:50;30.60;99.90
15481;DHT22;7842;50.904;6.670;2023-09-08T16:28:16;30.60;99.90
15481;DHT22;7842;50.904;6.670;2023-09-08T16:30:42;30.60;99.90
15481;DHT22;7842;50.904;6.670;2023-09-08T16:33:08;30.70;99.90
15481;DHT22;7842;50.904;6.670;2023-09-08T16:35:34;30.50;99.90
15481;DHT22;7842;50.904;6.670;2023-09-08T16:38:00;30.50;99.90
15481;DHT22;7842;50.904;6.670;2023-09-08T16:40:25;30.40;99.90
15481;DHT22;7842;50.904;6.670;2023-09-08T16:42:51;30.40;99.90
15481;DHT22;7842;50.904;6.670;2023-09-08T16:45:17;30.40;99.90
15481;DHT22;7842;50.904;6.670;2023-09-08T16:47:43;30.40;99.90
15481;DHT22;7842;50.904;6.670;2023-09-08T16:50:09;30.40;99.90
15481;DHT22;7842;50.904;6.670;2023-09-08T16:52:34;30.30;99.90
15481;DHT22;7842;50.904;6.670;2023-09-08T16:55:00;30.20;99.90
15481;DHT22;7842;50.904;6.670;2023-09-08T16:57:26;30.20;99.90
15481;DHT22;7842;50.904;6.670;2023-09-08T16:59:51;30.10;99.90
15481;DHT22;7842;50.904;6.670;2023-09-08T17:02:17;30.10;99.90
15481;DHT22;7842;50.904;6.670;2023-09-08T17:04:43;30.00;99.90
15481;DHT22;7842;50.904;6.670;2023-09-08T17:07:11;30.00;99.90
15481;DHT22;7842;50.904;6.670;2023-09-08T17:09:37;30.00;99.90
15481;DHT22;7842;50.904;6.670;2023-09-08T17:12:03;29.90;99.90
15481;DHT22;7842;50.904;6.670;2023-09-08T17:14:33;29.80;99.90
15481;DHT22;7842;50.904;6.670;2023-09-08T17:17:01;29.70;99.90
15481;DHT22;7842;50.904;6.670;2023-09-08T17:19:26;29.50;99.90
15481;DHT22;7842;50.904;6.670;2023-09-08T17:21:52;29.40;99.90
15481;DHT22;7842;50.904;6.670;2023-09-08T17:24:18;29.40;99.90
15481;DHT22;7842;50.904;6.670;2023-09-08T17:26:44;29.30;99.90
15481;DHT22;7842;50.904;6.670;2023-09-08T17:29:09;29.20;99.90
15481;DHT22;7842;50.904;6.670;2023-09-08T17:31:35;29.10;99.90
15481;DHT22;7842;50.904;6.670;2023-09-08T17:34:01;29.00;99.90
15481;DHT22;7842;50.904;6.670;2023-09-08T17:36:26;28.80;99.90
15481;DHT22;7842;50.904;6.670;2023-09-08T17:38:52;28.80;99.90
15481;DHT22;7842;50.904;6.670;2023-09-08T17:41:18;28.80;99.90
15481;DHT22;7842;50.904;6.670;2023-09-08T17:43:43;28.70;99.90
15481;DHT22;7842;50.904;6.670;2023-09-08T17:46:11;28.60;99.90
15481;DHT22;7842;50.904;6.670;2023-09-08T17:48:36;28.50;99.90
15481;DHT22;7842;50.904;6.670;2023-09-08T17:51:02;28.40;99.90
15481;DHT22;7842;50.904;6.670;2023-09-08T17:53:28;28.30;99.90
15481;DHT22;7842;50.904;6.670;2023-09-08T17:55:54;28.20;99.90
15481;DHT22;7842;50.904;6.670;2023-09-08T17:58:20;28.20;99.90
15481;DHT22;7842;50.904;6.670;2023-09-08T18:00:45;28.10;99.90
15481;DHT22;7842;50.904;6.670;2023-09-08T18:03:13;28.00;99.90
15481;DHT22;7842;50.904;6.670;2023-09-08T18:05:39;28.00;99.90
15481;DHT22;7842;50.904;6.670;2023-09-08T18:08:05;27.90;99.90
15481;DHT22;7842;50.904;6.670;2023-09-08T18:10:30;27.80;99.90
15481;DHT22;7842;50.904;6.670;2023-09-08T18:12:56;27.80;99.90
15481;DHT22;7842;50.904;6.670;2023-09-08T18:15:22;27.70;99.90
15481;DHT22;7842;50.904;6.670;2023-09-08T18:17:47;27.60;99.90
15481;DHT22;7842;50.904;6.670;2023-09-08T18:20:13;27.50;99.90
15481;DHT22;7842;50.904;6.670;2023-09-08T18:22:39;27.40;99.90
15481;DHT22;7842;50.904;6.670;2023-09-08T18:25:05;27.40;99.90
15481;DHT22;7842;50.904;6.670;2023-09-08T18:27:31;27.30;99.90
15481;DHT22;7842;50.904;6.670;2023-09-08T18:29:57;27.20;99.90
15481;DHT22;7842;50.904;6.670;2023-09-08T18:32:23;27.10;99.90
15481;DHT22;7842;50.904;6.670;2023-09-08T18:34:49;27.00;99.90
15481;DHT22;7842;50.904;6.670;2023-09-08T18:37:14;26.90;99.90
15481;DHT22;7842;50.904;6.670;2023-09-08T18:39:40;26.90;99.90
15481;DHT22;7842;50.904;6.670;2023-09-08T18:42:06;26.80;99.90
15481;DHT22;7842;50.904;6.670;2023-09-08T18:44:31;26.70;99.90
15481;DHT22;7842;50.904;6.670;2023-09-08T18:47:04;26.70;99.90
15481;DHT22;7842;50.904;6.670;2023-09-08T18:49:30;26.60;99.90
15481;DHT22;7842;50.904;6.670;2023-09-08T18:51:55;26.50;99.90
15481;DHT22;7842;50.904;6.670;2023-09-08T18:54:21;26.50;99.90
15481;DHT22;7842;50.904;6.670;2023-09-08T18:56:52;26.40;99.90
15481;DHT22;7842;50.904;6.670;2023-09-08T18:59:18;26.30;99.90
15481;DHT22;7842;50.904;6.670;2023-09-08T19:01:44;26.30;99.90
15481;DHT22;7842;50.904;6.670;2023-09-08T19:04:09;26.20;99.90
15481;DHT22;7842;50.904;6.670;2023-09-08T19:06:45;26.20;99.90
15481;DHT22;7842;50.904;6.670;2023-09-08T19:09:11;26.20;99.90
15481;DHT22;7842;50.904;6.670;2023-09-08T19:11:37;26.10;99.90
15481;DHT22;7842;50.904;6.670;2023-09-08T19:14:03;26.10;99.90
15481;DHT22;7842;50.904;6.670;2023-09-08T19:16:30;26.00;99.90
15481;DHT22;7842;50.904;6.670;2023-09-08T19:18:58;26.00;99.90
15481;DHT22;7842;50.904;6.670;2023-09-08T19:21:24;25.90;99.90
15481;DHT22;7842;50.904;6.670;2023-09-08T19:23:50;25.90;99.90
15481;DHT22;7842;50.904;6.670;2023-09-08T19:26:15;25.80;99.90
15481;DHT22;7842;50.904;6.670;2023-09-08T19:28:41;25.70;99.90
15481;DHT22;7842;50.904;6.670;2023-09-08T19:31:09;25.70;99.90
15481;DHT22;7842;50.904;6.670;2023-09-08T19:33:35;25.60;99.90
15481;DHT22;7842;50.904;6.670;2023-09-08T19:36:01;25.60;99.90
15481;DHT22;7842;50.904;6.670;2023-09-08T19:38:27;25.60;99.90
15481;DHT22;7842;50.904;6.670;2023-09-08T19:41:02;25.50;99.90
15481;DHT22;7842;50.904;6.670;2023-09-08T19:43:29;25.40;99.90
15481;DHT22;7842;50.904;6.670;2023-09-08T19:46:03;25.40;99.90
15481;DHT22;7842;50.904;6.670;2023-09-08T19:48:30;25.40;99.90
15481;DHT22;7842;50.904;6.670;2023-09-08T19:50:58;25.30;99.90
15481;DHT22;7842;50.904;6.670;2023-09-08T19:53:24;25.20;99.90
15481;DHT22;7842;50.904;6.670;2023-09-08T19:55:50;25.20;99.90
15481;DHT22;7842;50.904;6.670;2023-09-08T19:58:21;25.10;99.90
15481;DHT22;7842;50.904;6.670;2023-09-08T20:00:48;25.00;99.90
15481;DHT22;7842;50.904;6.670;2023-09-08T20:03:15;25.00;99.90
15481;DHT22;7842;50.904;6.670;2023-09-08T20:05:45;25.00;99.90
15481;DHT22;7842;50.904;6.670;2023-09-08T20:08:11;24.90;99.90
15481;DHT22;7842;50.904;6.670;2023-09-08T20:10:38;24.90;99.90
15481;DHT22;7842;50.904;6.670;2023-09-08T20:13:04;24.80;99.90
15481;DHT22;7842;50.904;6.670;2023-09-08T20:15:30;24.70;99.90
15481;DHT22;7842;50.904;6.670;2023-09-08T20:17:56;24.70;99.90
15481;DHT22;7842;50.904;6.670;2023-09-08T20:20:22;24.60;99.90
15481;DHT22;7842;50.904;6.670;2023-09-08T20:22:47;24.60;99.90
15481;DHT22;7842;50.904;6.670;2023-09-08T20:25:13;24.50;99.90
15481;DHT22;7842;50.904;6.670;2023-09-08T20:27:39;24.50;99.90
15481;DHT22;7842;50.904;6.670;2023-09-08T20:30:05;24.40;99.90
15481;DHT22;7842;50.904;6.670;2023-09-08T20:32:31;24.30;99.90
15481;DHT22;7842;50.904;6.670;2023-09-08T20:34:57;24.30;99.90
15481;DHT22;7842;50.904;6.670;2023-09-08T20:37:22;24.30;99.90
15481;DHT22;7842;50.904;6.670;2023-09-08T20:39:48;24.30;99.90
15481;DHT22;7842;50.904;6.670;2023-09-08T20:42:14;24.20;99.90
15481;DHT22;7842;50.904;6.670;2023-09-08T20:44:39;24.20;99.90
15481;DHT22;7842;50.904;6.670;2023-09-08T20:47:05;24.10;99.90
15481;DHT22;7842;50.904;6.670;2023-09-08T20:49:31;24.10;99.90
15481;DHT22;7842;50.904;6.670;2023-09-08T20:51:57;24.00;99.90
15481;DHT22;7842;50.904;6.670;2023-09-08T20:54:23;23.90;99.90
15481;DHT22;7842;50.904;6.670;2023-09-08T20:56:48;23.90;99.90
15481;DHT22;7842;50.904;6.670;2023-09-08T20:59:15;23.90;99.90
15481;DHT22;7842;50.904;6.670;2023-09-08T21:01:40;23.80;99.90
15481;DHT22;7842;50.904;6.670;2023-09-08T21:04:06;23.70;99.90
15481;DHT22;7842;50.904;6.670;2023-09-08T21:06:33;23.70;99.90
15481;DHT22;7842;50.904;6.670;2023-09-08T21:09:03;23.70;99.90
15481;DHT22;7842;50.904;6.670;2023-09-08T21:13:56;23.60;99.90
15481;DHT22;7842;50.904;6.670;2023-09-08T21:16:22;23.50;99.90
15481;DHT22;7842;50.904;6.670;2023-09-08T21:18:47;23.50;99.90
15481;DHT22;7842;50.904;6.670;2023-09-08T21:21:13;23.40;99.90
15481;DHT22;7842;50.904;6.670;2023-09-08T21:23:39;23.40;99.90
15481;DHT22;7842;50.904;6.670;2023-09-08T21:26:06;23.40;99.90
15481;DHT22;7842;50.904;6.670;2023-09-08T21:28:32;23.30;99.90
15481;DHT22;7842;50.904;6.670;2023-09-08T21:31:07;23.30;99.90
15481;DHT22;7842;50.904;6.670;2023-09-08T21:33:34;23.20;99.90
15481;DHT22;7842;50.904;6.670;2023-09-08T21:36:05;23.20;99.90
15481;DHT22;7842;50.904;6.670;2023-09-08T21:38:32;23.20;99.90
15481;DHT22;7842;50.904;6.670;2023-09-08T21:40:57;23.10;99.90
15481;DHT22;7842;50.904;6.670;2023-09-08T21:43:25;23.00;99.90
15481;DHT22;7842;50.904;6.670;2023-09-08T21:45:50;23.10;99.90
15481;DHT22;7842;50.904;6.670;2023-09-08T21:48:17;23.00;99.90
15481;DHT22;7842;50.904;6.670;2023-09-08T21:50:43;22.90;99.90
15481;DHT22;7842;50.904;6.670;2023-09-08T21:53:09;22.80;99.90
15481;DHT22;7842;50.904;6.670;2023-09-08T21:55:35;22.70;99.90
15481;DHT22;7842;50.904;6.670;2023-09-08T21:58:01;22.60;99.90
15481;DHT22;7842;50.904;6.670;2023-09-08T22:00:30;22.50;99.90
15481;DHT22;7842;50.904;6.670;2023-09-08T22:02:57;22.40;99.90
15481;DHT22;7842;50.904;6.670;2023-09-08T22:05:23;22.40;99.90
15481;DHT22;7842;50.904;6.670;2023-09-08T22:07:49;22.30;99.90
15481;DHT22;7842;50.904;6.670;2023-09-08T22:10:15;22.30;99.90
15481;DHT22;7842;50.904;6.670;2023-09-08T22:12:41;22.30;99.90
15481;DHT22;7842;50.904;6.670;2023-09-08T22:15:08;22.20;99.90
15481;DHT22;7842;50.904;6.670;2023-09-08T22:17:33;22.20;99.90
15481;DHT22;7842;50.904;6.670;2023-09-08T22:19:59;22.30;99.90
15481;DHT22;7842;50.904;6.670;2023-09-08T22:22:25;22.20;99.90
15481;DHT22;7842;50.904;6.670;2023-09-08T22:24:52;22.20;99.90
15481;DHT22;7842;50.904;6.670;2023-09-08T22:27:17;22.20;99.90
15481;DHT22;7842;50.904;6.670;2023-09-08T22:29:43;22.30;99.90
15481;DHT22;7842;50.904;6.670;2023-09-08T22:32:09;22.20;99.90
15481;DHT22;7842;50.904;6.670;2023-09-08T22:34:34;22.20;99.90
15481;DHT22;7842;50.904;6.670;2023-09-08T22:37:00;22.10;99.90
15481;DHT22;7842;50.904;6.670;2023-09-08T22:39:26;22.00;99.90
15481;DHT22;7842;50.904;6.670;2023-09-08T22:41:51;21.90;99.90
15481;DHT22;7842;50.904;6.670;2023-09-08T22:44:18;21.90;99.90
15481;DHT22;7842;50.904;6.670;2023-09-08T22:46:44;21.90;99.90
15481;DHT22;7842;50.904;6.670;2023-09-08T22:49:09;21.90;99.90
15481;DHT22;7842;50.904;6.670;2023-09-08T22:51:35;21.90;99.90
15481;DHT22;7842;50.904;6.670;2023-09-08T22:54:01;21.90;99.90
15481;DHT22;7842;50.904;6.670;2023-09-08T22:56:28;21.90;99.90
15481;DHT22;7842;50.904;6.670;2023-09-08T22:58:53;21.80;99.90
15481;DHT22;7842;50.904;6.670;2023-09-08T23:01:19;21.70;99.90
15481;DHT22;7842;50.904;6.670;2023-09-08T23:03:45;21.60;99.90
15481;DHT22;7842;50.904;6.670;2023-09-08T23:06:11;21.50;99.90
15481;DHT22;7842;50.904;6.670;2023-09-08T23:08:38;21.40;99.90
15481;DHT22;7842;50.904;6.670;2023-09-08T23:11:04;21.30;99.90
15481;DHT22;7842;50.904;6.670;2023-09-08T23:13:30;21.30;99.90
15481;DHT22;7842;50.904;6.670;2023-09-08T23:15:56;21.20;99.90
15481;DHT22;7842;50.904;6.670;2023-09-08T23:18:21;21.00;99.90
15481;DHT22;7842;50.904;6.670;2023-09-08T23:20:48;20.90;99.90
15481;DHT22;7842;50.904;6.670;2023-09-08T23:23:14;20.90;99.90
15481;DHT22;7842;50.904;6.670;2023-09-08T23:25:40;20.90;99.90
15481;DHT22;7842;50.904;6.670;2023-09-08T23:28:05;20.80;99.90
15481;DHT22;7842;50.904;6.670;2023-09-08T23:30:31;20.80;99.90
15481;DHT22;7842;50.904;6.670;2023-09-08T23:32:57;20.70;99.90
15481;DHT22;7842;50.904;6.670;2023-09-08T23:35:22;20.70;99.90
15481;DHT22;7842;50.904;6.670;2023-09-08T23:37:48;20.60;99.90
